createdAt,value
2018-06-22T00:02:09.872Z,11.61
2018-06-22T00:04:38.324Z,11.63
2018-06-22T00:07:06.697Z,11.48
2018-06-22T00:09:35.068Z,11.49
2018-06-22T00:12:03.482Z,11.49
2018-06-22T00:14:31.859Z,11.45
2018-06-22T00:17:00.296Z,11.38
2018-06-22T00:19:28.673Z,11.44
2018-06-22T00:21:57.061Z,11.45
2018-06-22T00:24:25.540Z,11.51
2018-06-22T00:26:54.522Z,11.41
2018-06-22T00:29:22.960Z,11.52
2018-06-22T00:31:51.610Z,11.50
2018-06-22T00:34:20.097Z,11.39
2018-06-22T00:36:48.522Z,11.42
2018-06-22T00:39:16.935Z,11.53
2018-06-22T00:41:45.357Z,11.50
2018-06-22T00:44:13.838Z,11.49
2018-06-22T00:46:42.424Z,11.43
2018-06-22T00:49:10.812Z,11.44
2018-06-22T00:51:39.282Z,11.43
2018-06-22T00:54:16.450Z,11.34
2018-06-22T00:56:45.309Z,11.31
2018-06-22T00:59:14.327Z,11.36
2018-06-22T01:01:42.716Z,11.39
2018-06-22T01:04:11.733Z,11.32
2018-06-22T01:06:40.526Z,11.25
2018-06-22T01:09:12.092Z,11.22
2018-06-22T01:11:40.547Z,11.31
2018-06-22T01:14:09.417Z,11.31
2018-06-22T01:16:38.231Z,11.22
2018-06-22T01:19:07.092Z,11.22
2018-06-22T01:21:35.520Z,11.21
2018-06-22T01:24:03.936Z,11.28
2018-06-22T01:26:32.337Z,11.34
2018-06-22T01:29:06.707Z,11.28
2018-06-22T01:31:35.254Z,11.29
2018-06-22T01:34:03.681Z,11.20
2018-06-22T01:36:32.064Z,11.16
2018-06-22T01:39:00.484Z,11.02
2018-06-22T01:41:28.885Z,11.06
2018-06-22T01:43:57.538Z,11.16
2018-06-22T01:46:25.950Z,11.12
2018-06-22T01:48:54.640Z,11.16
2018-06-22T01:51:23.023Z,11.09
2018-06-22T01:53:51.450Z,11.10
2018-06-22T01:56:20.895Z,11.06
2018-06-22T01:58:49.361Z,11.05
2018-06-22T02:01:18.557Z,11.12
2018-06-22T02:03:46.997Z,11.02
2018-06-22T02:06:15.383Z,11.02
2018-06-22T02:08:43.945Z,11.05
2018-06-22T02:11:12.380Z,11.09
2018-06-22T02:13:40.745Z,11.15
2018-06-22T02:16:09.312Z,11.18
2018-06-22T02:18:37.885Z,11.18
2018-06-22T02:21:06.360Z,11.14
2018-06-22T02:23:34.781Z,11.18
2018-06-22T02:26:03.220Z,11.19
2018-06-22T02:28:31.648Z,11.20
2018-06-22T02:31:00.060Z,11.21
2018-06-22T02:33:28.503Z,11.18
2018-06-22T02:35:56.896Z,11.17
2018-06-22T02:38:25.299Z,11.17
2018-06-22T02:40:53.812Z,11.10
2018-06-22T02:43:22.189Z,11.12
2018-06-22T02:45:50.829Z,11.11
2018-06-22T02:48:20.625Z,11.11
2018-06-22T02:50:49.413Z,11.11
2018-06-22T02:53:17.780Z,11.11
2018-06-22T02:55:47.256Z,11.13
2018-06-22T02:58:15.653Z,11.10
2018-06-22T03:00:44.648Z,11.06
2018-06-22T03:03:13.078Z,11.01
2018-06-22T03:05:41.507Z,10.99
2018-06-22T03:08:09.924Z,10.85
2018-06-22T03:10:38.355Z,10.79
2018-06-22T03:13:07.316Z,10.81
2018-06-22T03:15:35.973Z,10.87
2018-06-22T03:18:04.947Z,10.88
2018-06-22T03:20:33.341Z,10.78
2018-06-22T03:23:01.752Z,10.84
2018-06-22T03:25:30.403Z,10.82
2018-06-22T03:27:58.841Z,10.83
2018-06-22T03:30:27.223Z,10.92
2018-06-22T03:32:55.683Z,10.89
2018-06-22T03:35:24.100Z,10.88
2018-06-22T03:37:53.144Z,10.90
2018-06-22T03:40:22.061Z,10.97
2018-06-22T03:42:50.514Z,10.91
2018-06-22T03:45:18.945Z,10.94
2018-06-22T03:47:47.381Z,10.99
2018-06-22T03:50:15.817Z,11.01
2018-06-22T03:52:44.250Z,10.87
2018-06-22T03:55:12.691Z,11.01
2018-06-22T03:57:41.191Z,10.97
2018-06-22T04:00:10.453Z,10.98
2018-06-22T04:02:38.944Z,11.00
2018-06-22T04:05:07.373Z,10.98
2018-06-22T04:07:35.790Z,10.96
2018-06-22T04:10:04.254Z,10.95
2018-06-22T04:12:32.660Z,10.93
2018-06-22T04:15:01.104Z,10.93
2018-06-22T04:17:30.688Z,10.93
2018-06-22T04:19:59.120Z,10.93
2018-06-22T04:22:27.577Z,10.99
2018-06-22T04:24:55.992Z,11.01
2018-06-22T04:27:24.726Z,11.06
2018-06-22T04:29:53.352Z,11.11
2018-06-22T04:32:23.025Z,11.14
2018-06-22T04:34:51.405Z,11.20
2018-06-22T04:37:20.230Z,11.22
2018-06-22T04:39:48.664Z,11.22
2018-06-22T04:42:17.072Z,11.24
2018-06-22T04:44:45.463Z,11.27
2018-06-22T04:47:13.905Z,11.30
2018-06-22T04:49:42.388Z,11.39
2018-06-22T04:52:10.776Z,11.39
2018-06-22T04:54:39.192Z,11.38
2018-06-22T04:57:07.611Z,11.38
2018-06-22T04:59:36.100Z,11.30
2018-06-22T05:02:04.535Z,11.43
2018-06-22T05:04:32.985Z,11.45
2018-06-22T05:07:01.445Z,11.45
2018-06-22T05:09:29.832Z,11.43
2018-06-22T05:11:58.220Z,11.43
2018-06-22T05:14:26.774Z,11.45
2018-06-22T05:16:55.190Z,11.49
2018-06-22T05:19:23.626Z,11.49
2018-06-22T05:21:52.022Z,11.52
2018-06-22T05:24:20.419Z,11.45
2018-06-22T05:26:48.946Z,11.45
2018-06-22T05:29:17.363Z,11.18
2018-06-22T05:31:45.760Z,11.43
2018-06-22T05:34:14.124Z,11.44
2018-06-22T05:36:42.528Z,11.46
2018-06-22T05:39:11.954Z,11.50
2018-06-22T05:41:40.500Z,11.50
2018-06-22T05:44:09.597Z,11.55
2018-06-22T05:46:37.992Z,11.58
2018-06-22T05:49:06.469Z,11.59
2018-06-22T05:51:35.433Z,11.59
2018-06-22T05:54:03.995Z,11.59
2018-06-22T05:56:32.413Z,11.65
2018-06-22T05:59:00.823Z,11.65
2018-06-22T06:01:29.325Z,11.60
2018-06-22T06:03:57.722Z,11.63
2018-06-22T06:06:26.289Z,11.66
2018-06-22T06:08:54.708Z,11.68
2018-06-22T06:11:23.217Z,11.70
2018-06-22T06:13:51.652Z,11.71
2018-06-22T06:16:20.165Z,11.76
2018-06-22T06:18:48.663Z,11.89
2018-06-22T06:21:17.092Z,11.95
2018-06-22T06:23:45.501Z,12.04
2018-06-22T06:26:13.888Z,12.09
2018-06-22T06:28:42.540Z,12.09
2018-06-22T06:31:11.340Z,12.05
2018-06-22T06:33:39.761Z,12.01
2018-06-22T06:36:08.230Z,12.00
2018-06-22T06:38:36.641Z,12.02
2018-06-22T06:41:05.028Z,12.01
2018-06-22T06:43:33.439Z,11.94
2018-06-22T06:46:01.871Z,11.96
2018-06-22T06:48:30.294Z,11.97
2018-06-22T06:50:58.741Z,11.95
2018-06-22T06:53:27.244Z,11.98
2018-06-22T06:55:55.706Z,12.00
2018-06-22T06:58:24.096Z,11.98
2018-06-22T07:00:52.596Z,12.05
2018-06-22T07:03:20.995Z,12.09
2018-06-22T07:05:49.399Z,12.13
2018-06-22T07:08:17.800Z,12.14
2018-06-22T07:10:46.440Z,12.18
2018-06-22T07:13:14.896Z,12.23
2018-06-22T07:15:43.327Z,12.21
2018-06-22T07:18:11.707Z,12.15
2018-06-22T07:20:40.133Z,12.13
2018-06-22T07:23:09.293Z,12.17
2018-06-22T07:25:38.555Z,12.19
2018-06-22T07:28:07.081Z,12.18
2018-06-22T07:30:35.536Z,12.17
2018-06-22T07:33:03.953Z,12.20
2018-06-22T07:35:32.329Z,12.24
2018-06-22T07:38:00.804Z,12.30
2018-06-22T07:40:29.590Z,12.30
2018-06-22T07:42:58.021Z,12.27
2018-06-22T07:45:26.445Z,12.26
2018-06-22T07:47:54.856Z,12.28
2018-06-22T07:50:23.307Z,12.25
2018-06-22T07:52:52.348Z,12.26
2018-06-22T07:55:20.804Z,12.28
2018-06-22T07:57:49.245Z,12.28
2018-06-22T08:00:17.597Z,12.27
2018-06-22T08:02:46.922Z,12.28
2018-06-22T08:05:15.313Z,12.26
2018-06-22T08:07:43.716Z,12.30
2018-06-22T08:10:12.161Z,12.27
2018-06-22T08:12:40.657Z,12.22
2018-06-22T08:15:09.116Z,12.20
2018-06-22T08:17:37.578Z,12.16
2018-06-22T08:20:05.992Z,12.19
2018-06-22T08:22:34.395Z,12.23
2018-06-22T08:25:02.870Z,12.19
2018-06-22T08:27:31.404Z,12.10
2018-06-22T08:29:59.811Z,12.11
2018-06-22T08:32:28.383Z,12.07
2018-06-22T08:34:56.934Z,12.09
2018-06-22T08:37:25.299Z,12.13
2018-06-22T08:39:53.709Z,12.11
2018-06-22T08:42:22.230Z,12.18
2018-06-22T08:44:50.652Z,12.15
2018-06-22T08:47:19.101Z,12.18
2018-06-22T08:49:47.489Z,12.18
2018-06-22T08:52:15.907Z,12.05
2018-06-22T08:54:44.376Z,11.97
2018-06-22T08:57:12.866Z,11.93
2018-06-22T08:59:41.287Z,11.89
2018-06-22T09:02:09.815Z,11.89
2018-06-22T09:04:38.251Z,11.88
2018-06-22T09:07:06.702Z,12.01
2018-06-22T09:09:35.136Z,12.08
2018-06-22T09:12:03.589Z,12.14
2018-06-22T09:14:32.131Z,12.16
2018-06-22T09:17:00.562Z,12.20
2018-06-22T09:19:28.971Z,12.20
2018-06-22T09:21:57.445Z,12.22
2018-06-22T09:24:25.832Z,12.36
2018-06-22T09:26:54.252Z,12.44
2018-06-22T09:29:22.670Z,12.53
2018-06-22T09:31:51.109Z,12.41
2018-06-22T09:34:19.545Z,12.23
2018-06-22T09:36:48.023Z,12.09
2018-06-22T09:39:16.405Z,12.00
2018-06-22T09:41:44.792Z,11.95
2018-06-22T09:44:24.409Z,11.96
2018-06-22T09:46:52.824Z,12.04
2018-06-22T09:49:21.265Z,12.21
2018-06-22T09:51:50.582Z,12.38
2018-06-22T09:54:18.992Z,12.30
2018-06-22T09:56:48.065Z,12.45
2018-06-22T09:59:16.701Z,12.52
2018-06-22T10:01:45.640Z,12.50
2018-06-22T10:04:14.151Z,12.51
2018-06-22T10:06:42.613Z,12.61
2018-06-22T10:09:12.709Z,12.66
2018-06-22T10:11:41.276Z,12.68
2018-06-22T10:14:10.082Z,12.79
2018-06-22T10:16:38.542Z,13.00
2018-06-22T10:19:07.009Z,13.25
2018-06-22T10:21:35.605Z,13.22
2018-06-22T10:24:04.067Z,13.06
2018-06-22T10:26:32.507Z,12.96
2018-06-22T10:29:01.066Z,12.98
2018-06-22T10:31:29.475Z,13.03
2018-06-22T10:33:58.000Z,13.12
2018-06-22T10:36:26.630Z,13.12
2018-06-22T10:38:55.959Z,13.04
2018-06-22T10:41:24.433Z,13.13
2018-06-22T10:43:52.944Z,13.17
2018-06-22T10:46:21.408Z,13.22
2018-06-22T10:48:49.825Z,13.29
2018-06-22T10:51:18.868Z,13.35
2018-06-22T10:53:47.313Z,13.33
2018-06-22T10:56:15.767Z,13.36
2018-06-22T10:58:44.810Z,13.42
2018-06-22T11:01:13.301Z,13.48
2018-06-22T11:03:42.265Z,13.58
2018-06-22T11:06:10.668Z,13.52
2018-06-22T11:08:39.190Z,13.55
2018-06-22T11:11:07.635Z,13.53
2018-06-22T11:13:36.149Z,13.58
2018-06-22T11:16:04.605Z,13.71
2018-06-22T11:18:33.037Z,13.62
2018-06-22T11:21:01.475Z,13.54
2018-06-22T11:23:29.897Z,13.49
2018-06-22T11:25:59.225Z,13.49
2018-06-22T11:28:28.451Z,13.34
2018-06-22T11:30:56.990Z,13.25
2018-06-22T11:33:25.343Z,12.86
2018-06-22T11:35:54.485Z,12.91
2018-06-22T11:38:22.807Z,12.81
2018-06-22T11:40:51.191Z,12.86
2018-06-22T11:43:19.633Z,12.84
2018-06-22T11:45:48.061Z,12.87
2018-06-22T11:48:16.492Z,12.92
2018-06-22T11:50:44.928Z,13.19
2018-06-22T11:53:13.399Z,13.69
2018-06-22T11:55:41.861Z,13.94
2018-06-22T11:58:10.311Z,14.38
2018-06-22T12:00:38.879Z,14.74
2018-06-22T12:03:07.596Z,15.23
2018-06-22T12:05:36.047Z,15.78
2018-06-22T12:08:04.462Z,15.10
2018-06-22T12:10:32.907Z,14.87
2018-06-22T12:13:01.332Z,14.80
2018-06-22T12:15:29.752Z,14.74
2018-06-22T12:17:58.466Z,14.74
2018-06-22T12:20:26.862Z,14.47
2018-06-22T12:22:55.292Z,14.16
2018-06-22T12:25:24.463Z,13.78
2018-06-22T12:27:52.920Z,12.80
2018-06-22T12:30:21.415Z,13.47
2018-06-22T12:32:50.045Z,13.56
2018-06-22T12:35:18.521Z,13.51
2018-06-22T12:37:46.961Z,13.53
2018-06-22T12:40:15.449Z,13.64
2018-06-22T12:42:43.881Z,13.61
2018-06-22T12:45:12.371Z,13.62
2018-06-22T12:47:41.782Z,13.67
2018-06-22T12:50:10.179Z,13.73
2018-06-22T12:52:38.813Z,13.92
2018-06-22T12:55:07.349Z,14.97
2018-06-22T12:57:36.447Z,15.53
2018-06-22T13:00:05.818Z,15.39
2018-06-22T13:02:34.245Z,15.52
2018-06-22T13:05:03.192Z,15.93
2018-06-22T13:07:31.600Z,16.15
2018-06-22T13:10:00.085Z,16.25
2018-06-22T13:12:28.492Z,16.32
2018-06-22T13:14:56.936Z,16.79
2018-06-22T13:17:25.389Z,16.28
2018-06-22T13:19:53.880Z,15.89
2018-06-22T13:22:22.558Z,15.93
2018-06-22T13:24:50.999Z,16.13
2018-06-22T13:27:19.520Z,16.37
2018-06-22T13:29:47.948Z,16.81
2018-06-22T13:32:16.407Z,17.05
2018-06-22T13:34:44.820Z,17.09
2018-06-22T13:37:13.274Z,16.75
2018-06-22T13:39:41.812Z,16.83
2018-06-22T13:42:10.233Z,16.62
2018-06-22T13:44:38.892Z,16.39
2018-06-22T13:47:07.348Z,16.64
2018-06-22T13:49:35.805Z,17.25
2018-06-22T13:52:04.228Z,17.18
2018-06-22T13:54:32.695Z,17.65
2018-06-22T13:57:01.163Z,17.66
2018-06-22T13:59:29.549Z,17.09
2018-06-22T14:01:58.013Z,17.08
2018-06-22T14:04:31.732Z,17.03
2018-06-22T14:07:00.176Z,16.87
2018-06-22T14:09:28.650Z,16.57
2018-06-22T14:11:57.167Z,16.68
2018-06-22T14:14:25.588Z,16.46
2018-06-22T14:16:54.265Z,16.21
2018-06-22T14:19:22.775Z,16.39
2018-06-22T14:21:51.143Z,16.47
2018-06-22T14:24:19.562Z,16.75
2018-06-22T14:26:48.280Z,17.09
2018-06-22T14:29:16.691Z,17.46
2018-06-22T14:31:45.830Z,16.94
2018-06-22T14:34:16.320Z,16.99
2018-06-22T14:36:44.942Z,17.03
2018-06-22T14:39:13.366Z,17.30
2018-06-22T14:41:41.883Z,17.19
2018-06-22T14:44:10.294Z,17.44
2018-06-22T14:46:38.794Z,17.18
2018-06-22T14:49:07.485Z,17.38
2018-06-22T14:51:35.971Z,17.18
2018-06-22T14:54:09.692Z,17.09
2018-06-22T14:56:43.626Z,17.11
2018-06-22T14:59:17.241Z,17.43
2018-06-22T15:01:51.451Z,17.57
2018-06-22T15:04:25.154Z,17.48
2018-06-22T15:06:58.786Z,17.23
2018-06-22T15:09:27.804Z,16.96
2018-06-22T15:11:56.842Z,16.77
2018-06-22T15:14:25.262Z,16.54
2018-06-22T15:16:53.704Z,16.40
2018-06-22T15:19:22.291Z,16.38
2018-06-22T15:21:51.277Z,16.33
2018-06-22T15:24:19.676Z,16.21
2018-06-22T15:26:48.117Z,16.19
2018-06-22T15:29:16.544Z,16.30
2018-06-22T15:31:45.199Z,16.58
2018-06-22T15:34:18.812Z,16.78
2018-06-22T15:36:52.737Z,16.99
2018-06-22T15:40:24.055Z,17.14
2018-06-22T15:42:57.937Z,17.37
2018-06-22T15:45:30.409Z,17.32
2018-06-22T15:48:04.720Z,17.58
2018-06-22T15:50:39.553Z,17.41
2018-06-22T15:53:13.172Z,17.05
2018-06-22T15:55:44.812Z,16.77
2018-06-22T15:58:13.300Z,16.67
2018-06-22T16:00:41.752Z,16.59
2018-06-22T16:03:15.264Z,16.42
2018-06-22T16:05:43.673Z,16.25
2018-06-22T16:08:12.122Z,16.21
2018-06-22T16:10:40.980Z,16.17
2018-06-22T16:13:14.728Z,16.35
2018-06-22T16:16:47.958Z,16.51
2018-06-22T16:19:22.069Z,17.04
2018-06-22T16:21:55.700Z,17.01
2018-06-22T16:24:29.441Z,17.03
2018-06-22T16:27:03.150Z,17.22
2018-06-22T16:29:31.552Z,17.34
2018-06-22T16:31:59.974Z,17.34
2018-06-22T16:34:28.428Z,17.46
2018-06-22T16:36:56.852Z,17.40
2018-06-22T16:39:25.298Z,17.20
2018-06-22T16:41:53.821Z,17.22
2018-06-22T16:44:22.260Z,16.97
2018-06-22T16:46:50.647Z,16.83
2018-06-22T16:49:19.081Z,16.67
2018-06-22T16:51:47.643Z,16.52
2018-06-22T16:54:16.154Z,16.40
2018-06-22T16:56:44.693Z,16.55
2018-06-22T16:59:13.143Z,16.78
2018-06-22T17:01:41.548Z,16.85
2018-06-22T17:04:14.079Z,16.63
2018-06-22T17:06:47.720Z,16.33
2018-06-22T17:09:21.547Z,16.21
2018-06-22T17:11:55.282Z,16.06
2018-06-22T17:14:28.910Z,16.04
2018-06-22T17:17:02.664Z,16.03
2018-06-22T17:19:31.155Z,16.05
2018-06-22T17:21:59.576Z,16.22
2018-06-22T17:24:28.210Z,16.40
2018-06-22T17:26:56.549Z,16.72
2018-06-22T17:29:24.995Z,16.71
2018-06-22T17:31:53.425Z,16.79
2018-06-22T17:34:21.841Z,16.68
2018-06-22T17:36:50.382Z,16.65
2018-06-22T17:39:18.870Z,16.69
2018-06-22T17:41:47.456Z,16.70
2018-06-22T17:44:15.931Z,16.74
2018-06-22T17:46:44.412Z,16.72
2018-06-22T17:49:12.872Z,16.57
2018-06-22T17:51:41.260Z,16.42
2018-06-22T17:54:09.720Z,16.39
2018-06-22T17:56:38.133Z,16.23
2018-06-22T17:59:12.543Z,16.23
2018-06-22T18:01:46.486Z,16.02
2018-06-22T18:05:23.415Z,15.82
2018-06-22T18:07:51.901Z,15.78
2018-06-22T18:10:25.567Z,15.82
2018-06-22T18:12:56.451Z,15.71
2018-06-22T18:15:24.685Z,15.68
2018-06-22T18:17:53.222Z,15.73
2018-06-22T18:20:21.730Z,15.70
2018-06-22T18:22:50.498Z,15.62
2018-06-22T18:25:19.771Z,15.54
2018-06-22T18:27:48.884Z,15.51
2018-06-22T18:30:17.684Z,15.42
2018-06-22T18:32:46.139Z,15.34
2018-06-22T18:35:15.692Z,15.25
2018-06-22T18:37:44.197Z,15.10
2018-06-22T18:40:12.935Z,15.01
2018-06-22T18:42:41.383Z,14.93
2018-06-22T18:45:11.217Z,14.85
2018-06-22T18:47:40.220Z,14.70
2018-06-22T18:50:08.796Z,14.78
2018-06-22T18:52:42.390Z,14.79
2018-06-22T18:55:15.917Z,14.73
2018-06-22T18:57:49.681Z,14.73
2018-06-22T19:00:23.609Z,14.75
2018-06-22T19:02:57.286Z,14.67
2018-06-22T19:05:25.744Z,14.60
2018-06-22T19:07:54.226Z,14.56
2018-06-22T19:10:22.705Z,14.60
2018-06-22T19:12:51.424Z,14.55
2018-06-22T19:15:20.022Z,14.58
2018-06-22T19:17:49.303Z,14.57
2018-06-22T19:20:18.602Z,14.56
2018-06-22T19:22:47.140Z,14.53
2018-06-22T19:25:15.570Z,14.47
2018-06-22T19:27:43.990Z,14.50
2018-06-22T19:30:12.520Z,14.50
2018-06-22T19:32:41.182Z,14.50
2018-06-22T19:35:12.626Z,14.43
2018-06-22T19:37:42.200Z,14.39
2018-06-22T19:40:10.622Z,14.33
2018-06-22T19:42:39.035Z,14.33
2018-06-22T19:45:12.814Z,14.34
2018-06-22T19:47:46.661Z,14.32
2018-06-22T19:50:20.228Z,14.35
2018-06-22T19:52:53.907Z,14.33
2018-06-22T19:55:22.324Z,14.32
2018-06-22T19:57:51.150Z,14.27
2018-06-22T20:00:19.625Z,14.23
2018-06-22T20:02:48.067Z,14.20
2018-06-22T20:05:16.527Z,14.15
2018-06-22T20:07:44.940Z,14.14
2018-06-22T20:10:13.403Z,14.16
2018-06-22T20:12:41.819Z,14.11
2018-06-22T20:15:10.360Z,14.03
2018-06-22T20:17:38.815Z,13.94
2018-06-22T20:20:07.363Z,13.91
2018-06-22T20:22:35.842Z,13.90
2018-06-22T20:25:09.672Z,13.90
2018-06-22T20:27:38.149Z,13.91
2018-06-22T20:30:07.077Z,13.90
2018-06-22T20:32:35.477Z,13.81
2018-06-22T20:35:09.172Z,13.74
2018-06-22T20:37:43.459Z,13.66
2018-06-22T20:40:17.182Z,13.64
2018-06-22T20:42:52.652Z,13.62
2018-06-22T20:45:26.211Z,13.58
2018-06-22T20:47:59.878Z,13.54
2018-06-22T20:50:33.880Z,13.53
2018-06-22T20:53:03.289Z,13.50
2018-06-22T20:55:32.332Z,13.51
2018-06-22T20:58:00.798Z,13.50
2018-06-22T21:00:29.343Z,13.49
2018-06-22T21:02:58.309Z,13.50
2018-06-22T21:05:26.812Z,13.44
2018-06-22T21:07:55.537Z,13.44
2018-06-22T21:10:24.712Z,13.44
2018-06-22T21:12:53.178Z,13.41
2018-06-22T21:15:21.553Z,13.43
2018-06-22T21:17:50.211Z,13.45
2018-06-22T21:20:18.670Z,13.43
2018-06-22T21:22:47.170Z,13.40
2018-06-22T21:25:15.614Z,13.37
2018-06-22T21:27:49.512Z,13.33
2018-06-22T21:30:24.137Z,13.29
2018-06-22T21:32:57.923Z,13.31
2018-06-22T21:35:31.671Z,13.33
2018-06-22T21:38:05.397Z,13.25
2018-06-22T21:40:34.212Z,13.16
2018-06-22T21:43:02.712Z,13.10
2018-06-22T21:45:31.126Z,13.08
2018-06-22T21:47:59.612Z,13.09
2018-06-22T21:50:28.070Z,13.05
2018-06-22T21:52:56.913Z,13.03
2018-06-22T21:55:25.681Z,12.98
2018-06-22T21:57:54.352Z,12.95
2018-06-22T22:00:31.138Z,13.00
2018-06-22T22:03:01.217Z,13.00
2018-06-22T22:05:30.417Z,13.01
2018-06-22T22:08:00.348Z,12.98
2018-06-22T22:10:33.953Z,12.90
2018-06-22T22:13:02.423Z,12.84
2018-06-22T22:15:30.894Z,12.82
2018-06-22T22:17:59.521Z,12.78
2018-06-22T22:20:27.942Z,12.76
2018-06-22T22:22:56.355Z,12.72
2018-06-22T22:25:24.921Z,12.73
2018-06-22T22:27:53.991Z,12.77
2018-06-22T22:30:22.409Z,12.78
2018-06-22T22:32:50.900Z,12.73
2018-06-22T22:35:19.340Z,12.75
2018-06-22T22:37:47.827Z,12.73
2018-06-22T22:40:16.261Z,12.70
2018-06-22T22:42:44.732Z,12.75
2018-06-22T22:45:13.188Z,12.77
2018-06-22T22:47:41.635Z,12.77
2018-06-22T22:50:10.060Z,12.77
2018-06-22T22:52:38.517Z,12.74
2018-06-22T22:55:06.962Z,12.74
2018-06-22T22:57:35.421Z,12.73
2018-06-22T23:00:04.009Z,12.68
2018-06-22T23:02:32.451Z,12.67
2018-06-22T23:05:01.012Z,12.73
2018-06-22T23:07:29.436Z,12.76
2018-06-22T23:09:57.926Z,12.73
2018-06-22T23:12:26.457Z,12.76
2018-06-22T23:14:54.923Z,12.75
2018-06-22T23:17:23.436Z,12.74
2018-06-22T23:19:51.942Z,12.74
2018-06-22T23:22:30.348Z,12.75
2018-06-22T23:24:58.828Z,12.76
2018-06-22T23:27:27.351Z,12.71
2018-06-22T23:29:55.762Z,12.70
2018-06-22T23:32:24.221Z,12.58
2018-06-22T23:34:53.515Z,12.55
2018-06-22T23:37:21.980Z,12.54
2018-06-22T23:39:50.403Z,12.53
2018-06-22T23:42:18.843Z,12.49
2018-06-22T23:44:47.251Z,12.50
2018-06-22T23:47:15.743Z,12.49
2018-06-22T23:49:44.143Z,12.53
2018-06-22T23:52:12.562Z,12.53
2018-06-22T23:54:40.999Z,12.60
2018-06-22T23:57:09.485Z,12.64
2018-06-22T23:59:37.923Z,12.61
